sensor_id;sensor_type;location;lat;lon;timestamp;pressure;altitude;pressure_sealevel;temperature;humidity
65013;BME280;51715;39.432;-77.518;2023-02-08T00:01:24;100024.95;;;11.86;29.43
65013;BME280;51715;39.432;-77.518;2023-02-08T00:03:53;100027.23;;;11.65;29.21
65013;BME280;51715;39.432;-77.518;2023-02-08T00:06:22;100030.60;;;11.76;29.10
65013;BME280;51715;39.432;-77.518;2023-02-08T00:08:50;100029.20;;;11.95;29.24
65013;BME280;51715;39.432;-77.518;2023-02-08T00:11:18;100028.84;;;12.14;28.90
65013;BME280;51715;39.432;-77.518;2023-02-08T00:13:47;100020.92;;;12.22;28.72
65013;BME280;51715;39.432;-77.518;2023-02-08T00:16:16;100015.95;;;11.82;28.59
65013;BME280;51715;39.432;-77.518;2023-02-08T00:18:44;100013.80;;;12.15;28.59
65013;BME280;51715;39.432;-77.518;2023-02-08T00:21:14;100017.35;;;12.32;28.37
65013;BME280;51715;39.432;-77.518;2023-02-08T00:23:44;100019.19;;;12.35;28.64
65013;BME280;51715;39.432;-77.518;2023-02-08T00:26:14;100023.57;;;12.07;28.32
65013;BME280;51715;39.432;-77.518;2023-02-08T00:28:43;100006.68;;;12.36;28.63
65013;BME280;51715;39.432;-77.518;2023-02-08T00:31:11;100001.90;;;12.20;28.35
65013;BME280;51715;39.432;-77.518;2023-02-08T00:33:40;99993.81;;;12.52;28.17
65013;BME280;51715;39.432;-77.518;2023-02-08T00:36:11;99985.89;;;12.58;28.21
65013;BME280;51715;39.432;-77.518;2023-02-08T00:38:40;99970.10;;;12.58;28.18
65013;BME280;51715;39.432;-77.518;2023-02-08T00:41:09;99968.66;;;12.56;28.17
65013;BME280;51715;39.432;-77.518;2023-02-08T00:43:37;99994.61;;;12.19;28.52
65013;BME280;51715;39.432;-77.518;2023-02-08T00:46:06;99975.95;;;11.93;29.04
65013;BME280;51715;39.432;-77.518;2023-02-08T00:48:35;99963.43;;;11.89;29.03
65013;BME280;51715;39.432;-77.518;2023-02-08T00:51:06;99981.10;;;12.01;28.92
65013;BME280;51715;39.432;-77.518;2023-02-08T00:53:37;100000.65;;;12.25;28.83
65013;BME280;51715;39.432;-77.518;2023-02-08T00:56:06;99992.89;;;12.33;29.17
65013;BME280;51715;39.432;-77.518;2023-02-08T00:58:35;99991.75;;;11.89;29.17
65013;BME280;51715;39.432;-77.518;2023-02-08T01:01:04;100005.45;;;12.19;29.36
65013;BME280;51715;39.432;-77.518;2023-02-08T01:03:35;100005.56;;;11.60;29.40
65013;BME280;51715;39.432;-77.518;2023-02-08T01:06:12;100002.00;;;11.94;29.44
65013;BME280;51715;39.432;-77.518;2023-02-08T01:08:40;99998.47;;;11.50;29.90
65013;BME280;51715;39.432;-77.518;2023-02-08T01:11:11;99991.82;;;11.08;30.37
65013;BME280;51715;39.432;-77.518;2023-02-08T01:13:41;99976.26;;;10.83;31.00
65013;BME280;51715;39.432;-77.518;2023-02-08T01:16:12;99993.81;;;10.63;31.25
65013;BME280;51715;39.432;-77.518;2023-02-08T01:18:44;99997.83;;;10.74;31.05
65013;BME280;51715;39.432;-77.518;2023-02-08T01:21:15;100010.09;;;10.48;31.05
65013;BME280;51715;39.432;-77.518;2023-02-08T01:23:44;100015.84;;;10.71;31.02
65013;BME280;51715;39.432;-77.518;2023-02-08T01:26:15;100017.72;;;10.89;30.92
65013;BME280;51715;39.432;-77.518;2023-02-08T01:28:45;100016.59;;;10.59;31.04
65013;BME280;51715;39.432;-77.518;2023-02-08T01:31:15;100011.88;;;10.60;31.24
65013;BME280;51715;39.432;-77.518;2023-02-08T01:33:44;100012.07;;;9.95;32.20
65013;BME280;51715;39.432;-77.518;2023-02-08T01:36:13;100008.01;;;9.56;33.11
65013;BME280;51715;39.432;-77.518;2023-02-08T01:38:43;100011.97;;;9.40;33.05
65013;BME280;51715;39.432;-77.518;2023-02-08T01:41:16;100018.49;;;9.53;32.99
65013;BME280;51715;39.432;-77.518;2023-02-08T01:45:57;100024.27;;;9.67;32.69
65013;BME280;51715;39.432;-77.518;2023-02-08T01:48:28;100022.97;;;9.75;32.84
65013;BME280;51715;39.432;-77.518;2023-02-08T01:51:00;100015.51;;;10.15;32.84
65013;BME280;51715;39.432;-77.518;2023-02-08T01:53:32;100010.53;;;10.09;32.65
65013;BME280;51715;39.432;-77.518;2023-02-08T01:56:03;100008.28;;;10.16;32.95
65013;BME280;51715;39.432;-77.518;2023-02-08T01:58:37;100005.19;;;10.23;32.46
65013;BME280;51715;39.432;-77.518;2023-02-08T02:01:08;100007.76;;;10.26;32.90
65013;BME280;51715;39.432;-77.518;2023-02-08T02:03:38;100008.84;;;10.09;32.58
65013;BME280;51715;39.432;-77.518;2023-02-08T02:06:09;100001.44;;;9.87;33.06
65013;BME280;51715;39.432;-77.518;2023-02-08T02:11:25;100004.91;;;10.03;32.92
65013;BME280;51715;39.432;-77.518;2023-02-08T02:13:54;100008.95;;;10.01;33.33
65013;BME280;51715;39.432;-77.518;2023-02-08T02:16:23;100017.54;;;9.49;33.96
65013;BME280;51715;39.432;-77.518;2023-02-08T02:18:52;100023.09;;;9.95;33.91
65013;BME280;51715;39.432;-77.518;2023-02-08T02:21:33;100021.64;;;9.92;33.49
65013;BME280;51715;39.432;-77.518;2023-02-08T02:25:01;100028.77;;;10.13;32.94
65013;BME280;51715;39.432;-77.518;2023-02-08T02:27:46;100016.58;;;10.32;33.36
65013;BME280;51715;39.432;-77.518;2023-02-08T02:30:47;100011.90;;;10.13;33.20
65013;BME280;51715;39.432;-77.518;2023-02-08T02:33:33;99995.85;;;10.14;33.64
65013;BME280;51715;39.432;-77.518;2023-02-08T02:36:10;99994.11;;;10.20;33.87
65013;BME280;51715;39.432;-77.518;2023-02-08T02:38:50;99995.25;;;9.99;33.91
65013;BME280;51715;39.432;-77.518;2023-02-08T02:41:29;99985.83;;;10.09;33.67
65013;BME280;51715;39.432;-77.518;2023-02-08T02:44:15;99978.46;;;10.05;33.88
65013;BME280;51715;39.432;-77.518;2023-02-08T02:46:55;99970.57;;;10.07;33.42
65013;BME280;51715;39.432;-77.518;2023-02-08T02:49:28;99981.21;;;10.40;33.35
65013;BME280;51715;39.432;-77.518;2023-02-08T02:52:04;99971.27;;;9.56;34.88
65013;BME280;51715;39.432;-77.518;2023-02-08T02:54:36;99998.24;;;9.67;34.57
65013;BME280;51715;39.432;-77.518;2023-02-08T02:57:10;99982.05;;;9.67;35.02
65013;BME280;51715;39.432;-77.518;2023-02-08T02:59:42;99989.82;;;9.77;34.60
65013;BME280;51715;39.432;-77.518;2023-02-08T03:02:11;99981.71;;;10.43;34.59
65013;BME280;51715;39.432;-77.518;2023-02-08T03:04:49;99987.03;;;10.20;34.22
65013;BME280;51715;39.432;-77.518;2023-02-08T03:07:30;99972.70;;;10.22;34.18
65013;BME280;51715;39.432;-77.518;2023-02-08T03:10:17;99975.27;;;10.22;34.24
65013;BME280;51715;39.432;-77.518;2023-02-08T03:12:56;99985.70;;;10.54;34.01
65013;BME280;51715;39.432;-77.518;2023-02-08T03:15:33;100000.33;;;10.85;33.39
65013;BME280;51715;39.432;-77.518;2023-02-08T03:18:12;99992.86;;;10.05;34.01
65013;BME280;51715;39.432;-77.518;2023-02-08T03:20:52;99977.68;;;10.71;34.12
65013;BME280;51715;39.432;-77.518;2023-02-08T03:23:29;99971.57;;;10.50;33.42
65013;BME280;51715;39.432;-77.518;2023-02-08T03:26:04;99978.59;;;10.64;33.60
65013;BME280;51715;39.432;-77.518;2023-02-08T03:28:38;99980.00;;;10.66;33.57
65013;BME280;51715;39.432;-77.518;2023-02-08T03:31:14;99974.25;;;10.71;33.63
65013;BME280;51715;39.432;-77.518;2023-02-08T03:33:49;99965.13;;;10.83;33.27
65013;BME280;51715;39.432;-77.518;2023-02-08T03:36:23;99960.46;;;10.74;33.62
65013;BME280;51715;39.432;-77.518;2023-02-08T03:38:54;99952.15;;;10.68;33.69
65013;BME280;51715;39.432;-77.518;2023-02-08T03:41:27;99954.46;;;10.82;33.33
65013;BME280;51715;39.432;-77.518;2023-02-08T03:44:00;99947.89;;;10.87;33.28
65013;BME280;51715;39.432;-77.518;2023-02-08T03:46:32;99944.92;;;11.18;33.41
65013;BME280;51715;39.432;-77.518;2023-02-08T03:49:04;99940.80;;;11.04;33.05
65013;BME280;51715;39.432;-77.518;2023-02-08T03:51:36;99942.88;;;11.15;32.85
65013;BME280;51715;39.432;-77.518;2023-02-08T03:54:10;99950.66;;;11.04;33.25
65013;BME280;51715;39.432;-77.518;2023-02-08T03:56:43;99944.02;;;11.11;32.88
65013;BME280;51715;39.432;-77.518;2023-02-08T03:59:17;99949.47;;;11.14;33.10
65013;BME280;51715;39.432;-77.518;2023-02-08T04:01:52;99957.30;;;11.08;32.95
65013;BME280;51715;39.432;-77.518;2023-02-08T04:04:23;99946.89;;;10.61;33.30
65013;BME280;51715;39.432;-77.518;2023-02-08T04:06:52;99939.02;;;10.83;33.13
65013;BME280;51715;39.432;-77.518;2023-02-08T04:09:21;99935.23;;;10.85;33.22
65013;BME280;51715;39.432;-77.518;2023-02-08T04:11:49;99957.53;;;10.86;33.14
65013;BME280;51715;39.432;-77.518;2023-02-08T04:14:18;99956.37;;;10.50;33.41
65013;BME280;51715;39.432;-77.518;2023-02-08T04:16:46;99956.88;;;10.60;33.36
65013;BME280;51715;39.432;-77.518;2023-02-08T04:19:14;99961.57;;;10.68;33.26
65013;BME280;51715;39.432;-77.518;2023-02-08T04:21:43;99963.46;;;10.77;33.12
65013;BME280;51715;39.432;-77.518;2023-02-08T04:24:11;99958.78;;;10.96;33.48
65013;BME280;51715;39.432;-77.518;2023-02-08T04:26:39;99961.65;;;10.81;33.22
65013;BME280;51715;39.432;-77.518;2023-02-08T04:29:08;99956.64;;;11.26;33.18
65013;BME280;51715;39.432;-77.518;2023-02-08T04:31:36;99945.30;;;10.68;33.36
65013;BME280;51715;39.432;-77.518;2023-02-08T04:34:04;99955.39;;;10.73;33.31
65013;BME280;51715;39.432;-77.518;2023-02-08T04:36:34;99954.54;;;11.00;33.53
65013;BME280;51715;39.432;-77.518;2023-02-08T04:39:02;99952.76;;;10.66;33.81
65013;BME280;51715;39.432;-77.518;2023-02-08T04:41:30;99961.04;;;10.91;33.82
65013;BME280;51715;39.432;-77.518;2023-02-08T04:43:58;99951.71;;;10.67;34.04
65013;BME280;51715;39.432;-77.518;2023-02-08T04:46:27;99962.85;;;10.68;33.96
65013;BME280;51715;39.432;-77.518;2023-02-08T04:48:55;99969.38;;;10.00;34.94
65013;BME280;51715;39.432;-77.518;2023-02-08T04:51:23;99958.51;;;9.79;35.30
65013;BME280;51715;39.432;-77.518;2023-02-08T04:53:52;99965.76;;;10.23;34.79
65013;BME280;51715;39.432;-77.518;2023-02-08T04:56:19;99964.58;;;9.91;34.60
65013;BME280;51715;39.432;-77.518;2023-02-08T04:58:47;99976.99;;;10.13;34.26
65013;BME280;51715;39.432;-77.518;2023-02-08T05:04:02;99974.89;;;10.56;33.21
65013;BME280;51715;39.432;-77.518;2023-02-08T05:06:31;99980.19;;;10.35;32.99
65013;BME280;51715;39.432;-77.518;2023-02-08T05:08:59;99985.81;;;10.27;33.39
65013;BME280;51715;39.432;-77.518;2023-02-08T05:11:28;99985.13;;;10.57;33.48
65013;BME280;51715;39.432;-77.518;2023-02-08T05:13:57;99982.07;;;10.63;33.48
65013;BME280;51715;39.432;-77.518;2023-02-08T05:16:26;99978.48;;;10.96;33.22
65013;BME280;51715;39.432;-77.518;2023-02-08T05:18:55;99975.77;;;10.53;33.62
65013;BME280;51715;39.432;-77.518;2023-02-08T05:21:24;99968.66;;;10.33;33.79
65013;BME280;51715;39.432;-77.518;2023-02-08T05:23:53;99967.58;;;10.50;34.26
65013;BME280;51715;39.432;-77.518;2023-02-08T05:26:21;99978.95;;;10.17;34.67
65013;BME280;51715;39.432;-77.518;2023-02-08T05:28:49;99982.06;;;10.29;34.43
65013;BME280;51715;39.432;-77.518;2023-02-08T05:31:21;99975.41;;;10.22;34.14
65013;BME280;51715;39.432;-77.518;2023-02-08T05:33:50;99978.38;;;10.58;33.99
65013;BME280;51715;39.432;-77.518;2023-02-08T05:36:19;99966.44;;;10.32;34.25
65013;BME280;51715;39.432;-77.518;2023-02-08T05:38:47;99959.83;;;10.03;34.65
65013;BME280;51715;39.432;-77.518;2023-02-08T05:41:16;99964.64;;;9.96;34.94
65013;BME280;51715;39.432;-77.518;2023-02-08T05:43:45;99971.24;;;9.95;34.45
65013;BME280;51715;39.432;-77.518;2023-02-08T05:46:13;99954.20;;;9.97;34.21
65013;BME280;51715;39.432;-77.518;2023-02-08T05:48:42;99960.15;;;9.69;34.77
65013;BME280;51715;39.432;-77.518;2023-02-08T05:51:10;99965.74;;;9.85;34.76
65013;BME280;51715;39.432;-77.518;2023-02-08T05:53:39;99949.11;;;9.75;34.38
65013;BME280;51715;39.432;-77.518;2023-02-08T05:56:07;99972.79;;;9.41;35.13
65013;BME280;51715;39.432;-77.518;2023-02-08T05:58:36;99966.01;;;9.44;35.72
65013;BME280;51715;39.432;-77.518;2023-02-08T06:01:08;99967.74;;;8.90;35.96
65013;BME280;51715;39.432;-77.518;2023-02-08T06:03:37;99958.97;;;8.66;36.68
65013;BME280;51715;39.432;-77.518;2023-02-08T06:06:06;99963.05;;;8.71;36.06
65013;BME280;51715;39.432;-77.518;2023-02-08T06:08:34;99953.62;;;8.88;36.11
65013;BME280;51715;39.432;-77.518;2023-02-08T06:11:01;99942.40;;;8.77;36.18
65013;BME280;51715;39.432;-77.518;2023-02-08T06:13:29;99934.96;;;8.81;36.23
65013;BME280;51715;39.432;-77.518;2023-02-08T06:15:57;99927.42;;;8.76;36.02
65013;BME280;51715;39.432;-77.518;2023-02-08T06:18:26;99922.88;;;8.42;36.34
65013;BME280;51715;39.432;-77.518;2023-02-08T06:20:54;99929.80;;;8.11;36.57
65013;BME280;51715;39.432;-77.518;2023-02-08T06:23:23;99933.78;;;8.48;36.38
65013;BME280;51715;39.432;-77.518;2023-02-08T06:25:51;99931.21;;;8.59;36.03
65013;BME280;51715;39.432;-77.518;2023-02-08T06:28:19;99932.99;;;8.52;36.25
65013;BME280;51715;39.432;-77.518;2023-02-08T06:30:48;99934.75;;;8.38;35.92
65013;BME280;51715;39.432;-77.518;2023-02-08T06:33:16;99932.56;;;8.59;35.89
65013;BME280;51715;39.432;-77.518;2023-02-08T06:35:45;99928.48;;;8.35;35.92
65013;BME280;51715;39.432;-77.518;2023-02-08T06:38:13;99910.41;;;8.22;35.93
65013;BME280;51715;39.432;-77.518;2023-02-08T06:40:42;99911.80;;;8.16;36.16
65013;BME280;51715;39.432;-77.518;2023-02-08T06:43:10;99917.14;;;7.95;36.04
65013;BME280;51715;39.432;-77.518;2023-02-08T06:45:38;99921.40;;;8.43;36.08
65013;BME280;51715;39.432;-77.518;2023-02-08T06:48:06;99925.25;;;8.13;36.19
65013;BME280;51715;39.432;-77.518;2023-02-08T06:50:34;99923.67;;;8.38;36.07
65013;BME280;51715;39.432;-77.518;2023-02-08T06:53:03;99918.96;;;7.84;35.74
65013;BME280;51715;39.432;-77.518;2023-02-08T06:55:31;99910.43;;;7.77;36.30
65013;BME280;51715;39.432;-77.518;2023-02-08T06:57:59;99921.78;;;7.98;36.44
65013;BME280;51715;39.432;-77.518;2023-02-08T07:00:28;99930.54;;;7.85;36.62
65013;BME280;51715;39.432;-77.518;2023-02-08T07:02:57;99925.01;;;7.03;38.16
65013;BME280;51715;39.432;-77.518;2023-02-08T07:05:26;99922.89;;;7.07;38.38
65013;BME280;51715;39.432;-77.518;2023-02-08T07:07:55;99919.98;;;7.48;37.76
65013;BME280;51715;39.432;-77.518;2023-02-08T07:10:24;99906.54;;;6.92;37.85
65013;BME280;51715;39.432;-77.518;2023-02-08T07:12:51;99891.30;;;7.02;38.03
65013;BME280;51715;39.432;-77.518;2023-02-08T07:15:20;99886.33;;;6.97;38.66
65013;BME280;51715;39.432;-77.518;2023-02-08T07:17:47;99892.60;;;6.45;39.04
65013;BME280;51715;39.432;-77.518;2023-02-08T07:20:16;99897.04;;;6.93;38.81
65013;BME280;51715;39.432;-77.518;2023-02-08T07:22:44;99904.92;;;7.54;38.21
65013;BME280;51715;39.432;-77.518;2023-02-08T07:25:12;99914.16;;;7.23;38.10
65013;BME280;51715;39.432;-77.518;2023-02-08T07:27:40;99919.33;;;7.51;37.64
65013;BME280;51715;39.432;-77.518;2023-02-08T07:30:09;99923.79;;;7.97;37.43
65013;BME280;51715;39.432;-77.518;2023-02-08T07:32:38;99924.07;;;7.97;37.09
65013;BME280;51715;39.432;-77.518;2023-02-08T07:35:07;99920.47;;;7.93;37.38
65013;BME280;51715;39.432;-77.518;2023-02-08T07:37:35;99927.38;;;7.88;37.66
65013;BME280;51715;39.432;-77.518;2023-02-08T07:40:10;99928.10;;;8.00;37.58
65013;BME280;51715;39.432;-77.518;2023-02-08T07:42:38;99923.53;;;7.90;37.70
65013;BME280;51715;39.432;-77.518;2023-02-08T07:45:06;99911.44;;;7.69;38.24
65013;BME280;51715;39.432;-77.518;2023-02-08T07:47:34;99911.38;;;7.98;38.34
65013;BME280;51715;39.432;-77.518;2023-02-08T07:50:03;99905.92;;;7.93;38.80
65013;BME280;51715;39.432;-77.518;2023-02-08T07:52:31;99905.77;;;8.21;38.26
65013;BME280;51715;39.432;-77.518;2023-02-08T07:54:59;99909.92;;;8.05;38.19
65013;BME280;51715;39.432;-77.518;2023-02-08T07:57:28;99899.96;;;8.28;37.46
65013;BME280;51715;39.432;-77.518;2023-02-08T07:59:56;99903.33;;;8.25;37.62
65013;BME280;51715;39.432;-77.518;2023-02-08T08:02:24;99896.36;;;8.50;37.07
65013;BME280;51715;39.432;-77.518;2023-02-08T08:04:52;99901.38;;;8.64;36.98
65013;BME280;51715;39.432;-77.518;2023-02-08T08:07:21;99897.23;;;8.58;36.54
65013;BME280;51715;39.432;-77.518;2023-02-08T08:09:48;99893.63;;;8.94;36.40
65013;BME280;51715;39.432;-77.518;2023-02-08T08:12:17;99903.88;;;8.81;36.00
65013;BME280;51715;39.432;-77.518;2023-02-08T08:14:46;99898.29;;;9.00;36.38
65013;BME280;51715;39.432;-77.518;2023-02-08T08:17:15;99894.36;;;8.90;36.41
65013;BME280;51715;39.432;-77.518;2023-02-08T08:19:43;99909.21;;;8.96;36.32
65013;BME280;51715;39.432;-77.518;2023-02-08T08:22:11;99898.59;;;8.80;36.78
65013;BME280;51715;39.432;-77.518;2023-02-08T08:24:40;99919.59;;;8.61;36.37
65013;BME280;51715;39.432;-77.518;2023-02-08T08:27:08;99921.20;;;8.91;36.33
65013;BME280;51715;39.432;-77.518;2023-02-08T08:29:37;99903.07;;;8.97;36.33
65013;BME280;51715;39.432;-77.518;2023-02-08T08:32:06;99911.53;;;8.59;37.07
65013;BME280;51715;39.432;-77.518;2023-02-08T08:34:35;99916.11;;;8.60;37.11
65013;BME280;51715;39.432;-77.518;2023-02-08T08:37:03;99921.54;;;8.68;36.96
65013;BME280;51715;39.432;-77.518;2023-02-08T08:39:31;99909.47;;;7.88;38.24
65013;BME280;51715;39.432;-77.518;2023-02-08T08:41:59;99913.82;;;7.68;38.37
65013;BME280;51715;39.432;-77.518;2023-02-08T08:44:27;99914.34;;;8.40;38.12
65013;BME280;51715;39.432;-77.518;2023-02-08T08:46:57;99915.45;;;8.12;37.70
65013;BME280;51715;39.432;-77.518;2023-02-08T08:49:27;99913.16;;;8.29;38.04
65013;BME280;51715;39.432;-77.518;2023-02-08T08:51:56;99915.91;;;8.13;38.25
65013;BME280;51715;39.432;-77.518;2023-02-08T08:54:24;99919.07;;;7.95;37.88
65013;BME280;51715;39.432;-77.518;2023-02-08T08:56:53;99922.56;;;8.07;37.49
65013;BME280;51715;39.432;-77.518;2023-02-08T08:59:21;99916.26;;;8.14;37.69
65013;BME280;51715;39.432;-77.518;2023-02-08T09:01:50;99921.73;;;8.27;37.61
65013;BME280;51715;39.432;-77.518;2023-02-08T09:04:18;99925.44;;;8.30;37.49
65013;BME280;51715;39.432;-77.518;2023-02-08T09:06:46;99928.42;;;8.90;37.33
65013;BME280;51715;39.432;-77.518;2023-02-08T09:09:15;99932.54;;;8.46;37.21
65013;BME280;51715;39.432;-77.518;2023-02-08T09:11:45;99935.92;;;8.58;36.98
65013;BME280;51715;39.432;-77.518;2023-02-08T09:14:13;99937.40;;;8.69;36.73
65013;BME280;51715;39.432;-77.518;2023-02-08T09:16:41;99947.05;;;8.65;36.53
65013;BME280;51715;39.432;-77.518;2023-02-08T09:19:10;99957.27;;;8.50;36.57
65013;BME280;51715;39.432;-77.518;2023-02-08T09:21:39;99957.77;;;8.60;36.44
65013;BME280;51715;39.432;-77.518;2023-02-08T09:24:07;99964.70;;;8.78;36.69
65013;BME280;51715;39.432;-77.518;2023-02-08T09:26:36;99960.90;;;8.45;36.49
65013;BME280;51715;39.432;-77.518;2023-02-08T09:29:05;99954.41;;;8.48;36.53
65013;BME280;51715;39.432;-77.518;2023-02-08T09:31:34;99960.27;;;8.66;37.22
65013;BME280;51715;39.432;-77.518;2023-02-08T09:34:04;99962.17;;;8.10;37.55
65013;BME280;51715;39.432;-77.518;2023-02-08T09:36:35;99969.12;;;8.40;37.16
65013;BME280;51715;39.432;-77.518;2023-02-08T09:39:06;99970.74;;;9.00;37.16
65013;BME280;51715;39.432;-77.518;2023-02-08T09:41:47;99979.90;;;8.58;37.21
65013;BME280;51715;39.432;-77.518;2023-02-08T09:44:23;99980.96;;;8.67;36.66
65013;BME280;51715;39.432;-77.518;2023-02-08T09:46:58;99981.29;;;8.80;36.77
65013;BME280;51715;39.432;-77.518;2023-02-08T09:49:33;99994.53;;;8.53;37.74
65013;BME280;51715;39.432;-77.518;2023-02-08T09:52:08;99998.19;;;8.22;37.56
65013;BME280;51715;39.432;-77.518;2023-02-08T09:54:42;100004.59;;;8.79;37.49
65013;BME280;51715;39.432;-77.518;2023-02-08T09:57:15;99997.72;;;8.42;37.37
65013;BME280;51715;39.432;-77.518;2023-02-08T09:59:51;100004.01;;;8.49;37.59
65013;BME280;51715;39.432;-77.518;2023-02-08T10:02:25;100012.50;;;8.88;37.65
65013;BME280;51715;39.432;-77.518;2023-02-08T10:05:00;100022.60;;;8.62;37.17
65013;BME280;51715;39.432;-77.518;2023-02-08T10:07:30;100028.22;;;8.77;36.98
65013;BME280;51715;39.432;-77.518;2023-02-08T10:10:01;100032.34;;;9.10;37.13
65013;BME280;51715;39.432;-77.518;2023-02-08T10:12:37;100029.67;;;8.73;37.41
65013;BME280;51715;39.432;-77.518;2023-02-08T10:15:22;100033.33;;;8.76;37.39
65013;BME280;51715;39.432;-77.518;2023-02-08T10:18:09;100035.77;;;8.71;38.26
65013;BME280;51715;39.432;-77.518;2023-02-08T10:20:51;100032.83;;;8.88;38.69
65013;BME280;51715;39.432;-77.518;2023-02-08T10:23:37;100032.35;;;8.84;39.57
65013;BME280;51715;39.432;-77.518;2023-02-08T10:26:13;100037.96;;;8.78;39.21
65013;BME280;51715;39.432;-77.518;2023-02-08T10:28:58;100038.65;;;9.25;39.14
65013;BME280;51715;39.432;-77.518;2023-02-08T10:31:41;100050.63;;;9.11;38.62
65013;BME280;51715;39.432;-77.518;2023-02-08T10:34:24;100049.79;;;9.40;38.19
65013;BME280;51715;39.432;-77.518;2023-02-08T10:36:57;100054.41;;;9.11;39.11
65013;BME280;51715;39.432;-77.518;2023-02-08T10:39:28;100055.76;;;9.25;38.73
65013;BME280;51715;39.432;-77.518;2023-02-08T10:41:57;100059.46;;;9.42;38.55
65013;BME280;51715;39.432;-77.518;2023-02-08T10:44:32;100060.88;;;9.32;38.90
65013;BME280;51715;39.432;-77.518;2023-02-08T10:47:11;100064.86;;;9.54;38.55
65013;BME280;51715;39.432;-77.518;2023-02-08T10:49:49;100060.43;;;9.55;39.00
65013;BME280;51715;39.432;-77.518;2023-02-08T10:52:19;100055.31;;;9.73;38.20
65013;BME280;51715;39.432;-77.518;2023-02-08T10:54:47;100055.71;;;10.02;38.54
65013;BME280;51715;39.432;-77.518;2023-02-08T10:57:19;100062.18;;;9.95;38.94
65013;BME280;51715;39.432;-77.518;2023-02-08T10:59:51;100061.27;;;10.13;38.64
65013;BME280;51715;39.432;-77.518;2023-02-08T11:02:22;100069.29;;;10.22;38.44
65013;BME280;51715;39.432;-77.518;2023-02-08T11:05:00;100074.89;;;10.26;38.49
65013;BME280;51715;39.432;-77.518;2023-02-08T11:07:29;100076.83;;;9.96;38.94
65013;BME280;51715;39.432;-77.518;2023-02-08T11:10:20;100073.29;;;9.90;38.84
65013;BME280;51715;39.432;-77.518;2023-02-08T11:12:57;100079.10;;;9.55;39.98
65013;BME280;51715;39.432;-77.518;2023-02-08T11:15:28;100091.58;;;9.45;39.90
65013;BME280;51715;39.432;-77.518;2023-02-08T11:18:00;100093.65;;;9.61;40.22
65013;BME280;51715;39.432;-77.518;2023-02-08T11:20:33;100089.24;;;9.35;40.18
65013;BME280;51715;39.432;-77.518;2023-02-08T11:23:04;100096.01;;;9.51;39.82
65013;BME280;51715;39.432;-77.518;2023-02-08T11:25:35;100098.45;;;9.54;40.36
65013;BME280;51715;39.432;-77.518;2023-02-08T11:28:08;100100.15;;;9.55;40.22
65013;BME280;51715;39.432;-77.518;2023-02-08T11:30:57;100096.01;;;9.31;40.64
65013;BME280;51715;39.432;-77.518;2023-02-08T11:33:26;100093.48;;;9.60;40.14
65013;BME280;51715;39.432;-77.518;2023-02-08T11:35:59;100096.09;;;9.27;40.02
65013;BME280;51715;39.432;-77.518;2023-02-08T11:38:29;100104.12;;;8.63;40.10
65013;BME280;51715;39.432;-77.518;2023-02-08T11:41:00;100103.97;;;9.00;40.12
65013;BME280;51715;39.432;-77.518;2023-02-08T11:43:32;100105.32;;;8.59;41.09
65013;BME280;51715;39.432;-77.518;2023-02-08T11:46:03;100107.74;;;8.65;41.35
65013;BME280;51715;39.432;-77.518;2023-02-08T11:48:39;100120.77;;;8.55;41.79
65013;BME280;51715;39.432;-77.518;2023-02-08T11:51:12;100119.57;;;8.61;42.40
65013;BME280;51715;39.432;-77.518;2023-02-08T11:53:45;100124.45;;;8.59;42.28
65013;BME280;51715;39.432;-77.518;2023-02-08T11:56:18;100121.95;;;8.72;41.77
65013;BME280;51715;39.432;-77.518;2023-02-08T11:59:04;100120.17;;;8.45;40.17
65013;BME280;51715;39.432;-77.518;2023-02-08T12:01:36;100142.32;;;8.40;39.81
65013;BME280;51715;39.432;-77.518;2023-02-08T12:04:06;100151.53;;;8.30;40.73
65013;BME280;51715;39.432;-77.518;2023-02-08T12:07:18;100160.16;;;8.52;41.45
65013;BME280;51715;39.432;-77.518;2023-02-08T12:12:10;100153.63;;;8.15;41.54
65013;BME280;51715;39.432;-77.518;2023-02-08T12:14:52;100140.03;;;8.08;42.01
65013;BME280;51715;39.432;-77.518;2023-02-08T12:17:53;100152.34;;;8.17;41.26
65013;BME280;51715;39.432;-77.518;2023-02-08T12:20:34;100168.57;;;8.14;40.58
65013;BME280;51715;39.432;-77.518;2023-02-08T12:23:18;100185.19;;;8.29;41.48
65013;BME280;51715;39.432;-77.518;2023-02-08T12:25:54;100187.32;;;8.07;42.01
65013;BME280;51715;39.432;-77.518;2023-02-08T12:28:38;100193.46;;;8.08;41.56
65013;BME280;51715;39.432;-77.518;2023-02-08T12:31:18;100192.78;;;8.15;41.16
65013;BME280;51715;39.432;-77.518;2023-02-08T12:33:59;100194.73;;;7.93;41.28
65013;BME280;51715;39.432;-77.518;2023-02-08T12:36:49;100191.02;;;8.25;41.28
65013;BME280;51715;39.432;-77.518;2023-02-08T12:39:32;100196.56;;;7.99;40.94
65013;BME280;51715;39.432;-77.518;2023-02-08T12:42:18;100201.78;;;7.93;41.41
65013;BME280;51715;39.432;-77.518;2023-02-08T12:45:04;100212.34;;;8.22;41.34
65013;BME280;51715;39.432;-77.518;2023-02-08T12:47:49;100216.37;;;8.09;41.19
65013;BME280;51715;39.432;-77.518;2023-02-08T12:50:26;100219.83;;;7.96;40.84
65013;BME280;51715;39.432;-77.518;2023-02-08T12:53:02;100222.82;;;8.22;40.82
65013;BME280;51715;39.432;-77.518;2023-02-08T12:55:36;100225.62;;;8.60;40.77
65013;BME280;51715;39.432;-77.518;2023-02-08T12:58:19;100226.90;;;8.19;40.64
65013;BME280;51715;39.432;-77.518;2023-02-08T13:00:51;100229.97;;;8.33;40.57
65013;BME280;51715;39.432;-77.518;2023-02-08T13:03:30;100234.73;;;8.35;41.11
65013;BME280;51715;39.432;-77.518;2023-02-08T13:06:01;100234.02;;;8.41;41.21
65013;BME280;51715;39.432;-77.518;2023-02-08T13:08:35;100246.19;;;8.61;40.93
65013;BME280;51715;39.432;-77.518;2023-02-08T13:11:12;100250.65;;;8.86;40.88
65013;BME280;51715;39.432;-77.518;2023-02-08T13:13:43;100259.87;;;9.11;41.26
65013;BME280;51715;39.432;-77.518;2023-02-08T13:16:17;100268.89;;;9.09;41.38
65013;BME280;51715;39.432;-77.518;2023-02-08T13:18:53;100267.77;;;9.23;41.54